sensor_id;sensor_type;location;lat;lon;timestamp;temperature;humidity
22680;DHT22;11507;44.858;10.374;2023-12-28T00:02:17;8.30;99.90
22680;DHT22;11507;44.858;10.374;2023-12-28T00:04:43;8.20;99.90
22680;DHT22;11507;44.858;10.374;2023-12-28T00:07:09;8.20;99.90
22680;DHT22;11507;44.858;10.374;2023-12-28T00:09:35;8.10;99.90
22680;DHT22;11507;44.858;10.374;2023-12-28T00:12:01;8.10;99.90
22680;DHT22;11507;44.858;10.374;2023-12-28T00:14:27;8.10;99.90
22680;DHT22;11507;44.858;10.374;2023-12-28T00:16:53;8.10;99.90
22680;DHT22;11507;44.858;10.374;2023-12-28T00:19:19;8.10;99.90
22680;DHT22;11507;44.858;10.374;2023-12-28T00:21:46;8.10;99.90
22680;DHT22;11507;44.858;10.374;2023-12-28T00:24:12;8.00;99.90
22680;DHT22;11507;44.858;10.374;2023-12-28T00:26:38;8.00;99.90
22680;DHT22;11507;44.858;10.374;2023-12-28T00:29:05;8.10;99.90
22680;DHT22;11507;44.858;10.374;2023-12-28T00:31:31;8.10;99.90
22680;DHT22;11507;44.858;10.374;2023-12-28T00:33:57;8.10;99.90
22680;DHT22;11507;44.858;10.374;2023-12-28T00:36:23;8.10;99.90
22680;DHT22;11507;44.858;10.374;2023-12-28T00:38:49;8.10;99.90
22680;DHT22;11507;44.858;10.374;2023-12-28T00:41:15;8.10;99.90
22680;DHT22;11507;44.858;10.374;2023-12-28T00:43:42;8.10;99.90
22680;DHT22;11507;44.858;10.374;2023-12-28T00:46:08;8.10;99.90
22680;DHT22;11507;44.858;10.374;2023-12-28T00:48:33;8.20;99.90
22680;DHT22;11507;44.858;10.374;2023-12-28T00:51:00;8.20;99.90
22680;DHT22;11507;44.858;10.374;2023-12-28T00:53:26;8.20;99.90
22680;DHT22;11507;44.858;10.374;2023-12-28T00:55:52;8.20;99.90
22680;DHT22;11507;44.858;10.374;2023-12-28T00:58:18;8.20;99.90
22680;DHT22;11507;44.858;10.374;2023-12-28T01:00:44;8.20;99.90
22680;DHT22;11507;44.858;10.374;2023-12-28T01:03:10;8.20;99.90
22680;DHT22;11507;44.858;10.374;2023-12-28T01:05:36;8.10;99.90
22680;DHT22;11507;44.858;10.374;2023-12-28T01:08:03;8.10;99.90
22680;DHT22;11507;44.858;10.374;2023-12-28T01:10:29;8.10;99.90
22680;DHT22;11507;44.858;10.374;2023-12-28T01:12:55;8.10;99.90
22680;DHT22;11507;44.858;10.374;2023-12-28T01:15:20;8.00;99.90
22680;DHT22;11507;44.858;10.374;2023-12-28T01:17:46;8.10;99.90
22680;DHT22;11507;44.858;10.374;2023-12-28T01:20:12;8.10;99.90
22680;DHT22;11507;44.858;10.374;2023-12-28T01:22:38;8.10;99.90
22680;DHT22;11507;44.858;10.374;2023-12-28T01:25:04;8.10;99.90
22680;DHT22;11507;44.858;10.374;2023-12-28T01:27:30;8.10;99.90
22680;DHT22;11507;44.858;10.374;2023-12-28T01:29:56;8.20;99.90
22680;DHT22;11507;44.858;10.374;2023-12-28T01:32:22;8.10;99.90
22680;DHT22;11507;44.858;10.374;2023-12-28T01:34:48;8.10;99.90
22680;DHT22;11507;44.858;10.374;2023-12-28T01:37:14;8.10;99.90
22680;DHT22;11507;44.858;10.374;2023-12-28T01:39:40;8.10;99.90
22680;DHT22;11507;44.858;10.374;2023-12-28T01:42:07;8.10;99.90
22680;DHT22;11507;44.858;10.374;2023-12-28T01:44:33;8.10;99.90
22680;DHT22;11507;44.858;10.374;2023-12-28T01:46:59;8.10;99.90
22680;DHT22;11507;44.858;10.374;2023-12-28T01:49:25;8.10;99.90
22680;DHT22;11507;44.858;10.374;2023-12-28T01:51:51;8.00;99.90
22680;DHT22;11507;44.858;10.374;2023-12-28T01:54:17;8.00;99.90
22680;DHT22;11507;44.858;10.374;2023-12-28T01:56:43;8.00;99.90
22680;DHT22;11507;44.858;10.374;2023-12-28T01:59:10;8.10;99.90
22680;DHT22;11507;44.858;10.374;2023-12-28T02:01:36;8.10;99.90
22680;DHT22;11507;44.858;10.374;2023-12-28T02:04:02;8.10;99.90
22680;DHT22;11507;44.858;10.374;2023-12-28T02:06:28;8.10;99.90
22680;DHT22;11507;44.858;10.374;2023-12-28T02:08:54;8.10;99.90
22680;DHT22;11507;44.858;10.374;2023-12-28T02:11:20;8.10;99.90
22680;DHT22;11507;44.858;10.374;2023-12-28T02:13:46;8.10;99.90
22680;DHT22;11507;44.858;10.374;2023-12-28T02:16:36;8.10;99.90
22680;DHT22;11507;44.858;10.374;2023-12-28T02:19:06;8.10;99.90
22680;DHT22;11507;44.858;10.374;2023-12-28T02:21:33;8.10;99.90
22680;DHT22;11507;44.858;10.374;2023-12-28T02:23:59;8.00;99.90
22680;DHT22;11507;44.858;10.374;2023-12-28T02:26:25;8.10;99.90
22680;DHT22;11507;44.858;10.374;2023-12-28T02:28:53;8.10;99.90
22680;DHT22;11507;44.858;10.374;2023-12-28T02:31:26;8.10;99.90
22680;DHT22;11507;44.858;10.374;2023-12-28T02:34:01;8.10;99.90
22680;DHT22;11507;44.858;10.374;2023-12-28T02:36:30;8.10;99.90
22680;DHT22;11507;44.858;10.374;2023-12-28T02:38:56;8.00;99.90
22680;DHT22;11507;44.858;10.374;2023-12-28T02:41:24;8.00;99.90
22680;DHT22;11507;44.858;10.374;2023-12-28T02:43:51;7.90;99.90
22680;DHT22;11507;44.858;10.374;2023-12-28T02:46:18;7.90;99.90
22680;DHT22;11507;44.858;10.374;2023-12-28T02:48:44;7.90;99.90
22680;DHT22;11507;44.858;10.374;2023-12-28T02:51:10;7.80;99.90
22680;DHT22;11507;44.858;10.374;2023-12-28T02:53:36;7.90;99.90
22680;DHT22;11507;44.858;10.374;2023-12-28T02:56:02;7.80;99.90
22680;DHT22;11507;44.858;10.374;2023-12-28T02:58:28;7.80;99.90
22680;DHT22;11507;44.858;10.374;2023-12-28T03:00:54;7.80;99.90
22680;DHT22;11507;44.858;10.374;2023-12-28T03:03:22;7.70;99.90
22680;DHT22;11507;44.858;10.374;2023-12-28T03:05:47;7.70;99.90
22680;DHT22;11507;44.858;10.374;2023-12-28T03:08:13;7.70;99.90
22680;DHT22;11507;44.858;10.374;2023-12-28T03:10:39;7.70;99.90
22680;DHT22;11507;44.858;10.374;2023-12-28T03:13:05;7.60;99.90
22680;DHT22;11507;44.858;10.374;2023-12-28T03:15:31;7.60;99.90
22680;DHT22;11507;44.858;10.374;2023-12-28T03:17:57;7.70;99.90
22680;DHT22;11507;44.858;10.374;2023-12-28T03:20:23;7.60;99.90
22680;DHT22;11507;44.858;10.374;2023-12-28T03:22:49;7.60;99.90
22680;DHT22;11507;44.858;10.374;2023-12-28T03:25:14;7.60;99.90
22680;DHT22;11507;44.858;10.374;2023-12-28T03:27:40;7.60;99.90
22680;DHT22;11507;44.858;10.374;2023-12-28T03:30:06;7.60;99.90
22680;DHT22;11507;44.858;10.374;2023-12-28T03:32:33;7.60;99.90
22680;DHT22;11507;44.858;10.374;2023-12-28T03:34:58;7.60;99.90
22680;DHT22;11507;44.858;10.374;2023-12-28T03:37:25;7.70;99.90
22680;DHT22;11507;44.858;10.374;2023-12-28T03:39:51;7.70;99.90
22680;DHT22;11507;44.858;10.374;2023-12-28T03:42:17;7.60;99.90
22680;DHT22;11507;44.858;10.374;2023-12-28T03:44:43;7.60;99.90
22680;DHT22;11507;44.858;10.374;2023-12-28T03:47:09;7.60;99.90
22680;DHT22;11507;44.858;10.374;2023-12-28T03:49:35;7.60;99.90
22680;DHT22;11507;44.858;10.374;2023-12-28T03:52:01;7.60;99.90
22680;DHT22;11507;44.858;10.374;2023-12-28T03:54:28;7.50;99.90
22680;DHT22;11507;44.858;10.374;2023-12-28T03:56:54;7.60;99.90
22680;DHT22;11507;44.858;10.374;2023-12-28T03:59:20;7.60;99.90
22680;DHT22;11507;44.858;10.374;2023-12-28T04:01:46;7.60;99.90
22680;DHT22;11507;44.858;10.374;2023-12-28T04:04:12;7.60;99.90
22680;DHT22;11507;44.858;10.374;2023-12-28T04:06:38;7.60;99.90
22680;DHT22;11507;44.858;10.374;2023-12-28T04:09:04;7.60;99.90
22680;DHT22;11507;44.858;10.374;2023-12-28T04:11:30;7.60;99.90
22680;DHT22;11507;44.858;10.374;2023-12-28T04:13:57;7.60;99.90
22680;DHT22;11507;44.858;10.374;2023-12-28T04:16:22;7.60;99.90
22680;DHT22;11507;44.858;10.374;2023-12-28T04:18:48;7.60;99.90
22680;DHT22;11507;44.858;10.374;2023-12-28T04:21:15;7.70;99.90
22680;DHT22;11507;44.858;10.374;2023-12-28T04:23:41;7.70;99.90
22680;DHT22;11507;44.858;10.374;2023-12-28T04:26:07;7.70;99.90
22680;DHT22;11507;44.858;10.374;2023-12-28T04:28:34;7.70;99.90
22680;DHT22;11507;44.858;10.374;2023-12-28T04:31:05;7.70;99.90
22680;DHT22;11507;44.858;10.374;2023-12-28T04:33:31;7.70;99.90
22680;DHT22;11507;44.858;10.374;2023-12-28T04:36:00;7.80;99.90
22680;DHT22;11507;44.858;10.374;2023-12-28T04:38:26;7.70;99.90
22680;DHT22;11507;44.858;10.374;2023-12-28T04:40:53;7.70;99.90
22680;DHT22;11507;44.858;10.374;2023-12-28T04:43:18;7.70;99.90
22680;DHT22;11507;44.858;10.374;2023-12-28T04:45:44;7.80;99.90
22680;DHT22;11507;44.858;10.374;2023-12-28T04:48:10;7.80;99.90
22680;DHT22;11507;44.858;10.374;2023-12-28T04:50:36;7.70;99.90
22680;DHT22;11507;44.858;10.374;2023-12-28T04:53:02;7.80;99.90
22680;DHT22;11507;44.858;10.374;2023-12-28T04:55:29;7.80;99.90
22680;DHT22;11507;44.858;10.374;2023-12-28T04:57:54;7.80;99.90
22680;DHT22;11507;44.858;10.374;2023-12-28T05:00:20;7.90;99.90
22680;DHT22;11507;44.858;10.374;2023-12-28T05:02:48;7.90;99.90
22680;DHT22;11507;44.858;10.374;2023-12-28T05:05:14;7.90;99.90
22680;DHT22;11507;44.858;10.374;2023-12-28T05:07:40;7.80;99.90
22680;DHT22;11507;44.858;10.374;2023-12-28T05:10:06;7.80;99.90
22680;DHT22;11507;44.858;10.374;2023-12-28T05:12:32;7.80;99.90
22680;DHT22;11507;44.858;10.374;2023-12-28T05:14:58;7.80;99.90
22680;DHT22;11507;44.858;10.374;2023-12-28T05:17:24;7.80;99.90
22680;DHT22;11507;44.858;10.374;2023-12-28T05:19:50;7.80;99.90
22680;DHT22;11507;44.858;10.374;2023-12-28T05:22:16;7.80;99.90
22680;DHT22;11507;44.858;10.374;2023-12-28T05:24:42;7.80;99.90
22680;DHT22;11507;44.858;10.374;2023-12-28T05:27:08;7.80;99.90
22680;DHT22;11507;44.858;10.374;2023-12-28T05:29:34;7.80;99.90
22680;DHT22;11507;44.858;10.374;2023-12-28T05:32:00;7.90;99.90
22680;DHT22;11507;44.858;10.374;2023-12-28T05:34:25;7.90;99.90
22680;DHT22;11507;44.858;10.374;2023-12-28T05:36:51;7.90;99.90
22680;DHT22;11507;44.858;10.374;2023-12-28T05:39:17;7.90;99.90
22680;DHT22;11507;44.858;10.374;2023-12-28T05:41:43;7.90;99.90
22680;DHT22;11507;44.858;10.374;2023-12-28T05:44:13;7.90;99.90
22680;DHT22;11507;44.858;10.374;2023-12-28T05:46:40;7.80;99.90
22680;DHT22;11507;44.858;10.374;2023-12-28T05:49:05;7.70;99.90
22680;DHT22;11507;44.858;10.374;2023-12-28T05:51:37;7.70;99.90
22680;DHT22;11507;44.858;10.374;2023-12-28T05:54:02;7.70;99.90
22680;DHT22;11507;44.858;10.374;2023-12-28T05:56:28;7.60;99.90
22680;DHT22;11507;44.858;10.374;2023-12-28T05:58:54;7.60;99.90
22680;DHT22;11507;44.858;10.374;2023-12-28T06:01:20;7.60;99.90
22680;DHT22;11507;44.858;10.374;2023-12-28T06:03:46;7.50;99.90
22680;DHT22;11507;44.858;10.374;2023-12-28T06:06:15;7.60;99.90
22680;DHT22;11507;44.858;10.374;2023-12-28T06:08:40;7.50;99.90
22680;DHT22;11507;44.858;10.374;2023-12-28T06:11:06;7.40;99.90
22680;DHT22;11507;44.858;10.374;2023-12-28T06:13:32;7.40;99.90
22680;DHT22;11507;44.858;10.374;2023-12-28T06:15:58;7.30;99.90
22680;DHT22;11507;44.858;10.374;2023-12-28T06:18:24;7.20;99.90
22680;DHT22;11507;44.858;10.374;2023-12-28T06:20:50;7.20;99.90
22680;DHT22;11507;44.858;10.374;2023-12-28T06:23:16;7.10;99.90
22680;DHT22;11507;44.858;10.374;2023-12-28T06:25:42;7.00;99.90
22680;DHT22;11507;44.858;10.374;2023-12-28T06:28:08;6.90;99.90
22680;DHT22;11507;44.858;10.374;2023-12-28T06:30:33;6.90;99.90
22680;DHT22;11507;44.858;10.374;2023-12-28T06:32:59;6.80;99.90
22680;DHT22;11507;44.858;10.374;2023-12-28T06:35:25;6.80;99.90
22680;DHT22;11507;44.858;10.374;2023-12-28T06:37:51;6.80;99.90
22680;DHT22;11507;44.858;10.374;2023-12-28T06:40:17;6.80;99.90
22680;DHT22;11507;44.858;10.374;2023-12-28T06:42:43;6.80;99.90
22680;DHT22;11507;44.858;10.374;2023-12-28T06:45:09;6.80;99.90
22680;DHT22;11507;44.858;10.374;2023-12-28T06:47:35;6.80;99.90
22680;DHT22;11507;44.858;10.374;2023-12-28T06:50:01;6.80;99.90
22680;DHT22;11507;44.858;10.374;2023-12-28T06:52:27;6.90;99.90
22680;DHT22;11507;44.858;10.374;2023-12-28T06:54:54;7.00;99.90
22680;DHT22;11507;44.858;10.374;2023-12-28T06:57:20;7.00;99.90
22680;DHT22;11507;44.858;10.374;2023-12-28T06:59:46;6.90;99.90
22680;DHT22;11507;44.858;10.374;2023-12-28T07:02:12;7.00;99.90
22680;DHT22;11507;44.858;10.374;2023-12-28T07:04:38;7.20;99.90
22680;DHT22;11507;44.858;10.374;2023-12-28T07:07:04;7.30;99.90
22680;DHT22;11507;44.858;10.374;2023-12-28T07:09:29;7.40;99.90
22680;DHT22;11507;44.858;10.374;2023-12-28T07:11:55;7.40;99.90
22680;DHT22;11507;44.858;10.374;2023-12-28T07:14:21;7.50;99.90
22680;DHT22;11507;44.858;10.374;2023-12-28T07:16:47;7.60;99.90
22680;DHT22;11507;44.858;10.374;2023-12-28T07:19:13;7.60;99.90
22680;DHT22;11507;44.858;10.374;2023-12-28T07:21:39;7.50;99.90
22680;DHT22;11507;44.858;10.374;2023-12-28T07:24:09;7.60;99.90
22680;DHT22;11507;44.858;10.374;2023-12-28T07:26:35;7.60;99.90
22680;DHT22;11507;44.858;10.374;2023-12-28T07:29:01;7.70;99.90
22680;DHT22;11507;44.858;10.374;2023-12-28T07:31:27;7.70;99.90
22680;DHT22;11507;44.858;10.374;2023-12-28T07:33:53;7.80;99.90
22680;DHT22;11507;44.858;10.374;2023-12-28T07:36:20;7.80;99.90
22680;DHT22;11507;44.858;10.374;2023-12-28T07:38:46;7.90;99.90
22680;DHT22;11507;44.858;10.374;2023-12-28T07:41:12;8.00;99.90
22680;DHT22;11507;44.858;10.374;2023-12-28T07:43:38;8.10;99.90
22680;DHT22;11507;44.858;10.374;2023-12-28T07:46:04;8.20;99.90
22680;DHT22;11507;44.858;10.374;2023-12-28T07:48:30;8.30;99.90
22680;DHT22;11507;44.858;10.374;2023-12-28T07:50:57;8.40;99.90
22680;DHT22;11507;44.858;10.374;2023-12-28T07:53:23;8.60;99.90
22680;DHT22;11507;44.858;10.374;2023-12-28T07:55:49;8.60;99.90
22680;DHT22;11507;44.858;10.374;2023-12-28T07:58:15;8.80;99.90
22680;DHT22;11507;44.858;10.374;2023-12-28T08:00:41;8.80;99.90
22680;DHT22;11507;44.858;10.374;2023-12-28T08:03:07;9.00;99.90
22680;DHT22;11507;44.858;10.374;2023-12-28T08:05:33;9.00;99.90
22680;DHT22;11507;44.858;10.374;2023-12-28T08:07:58;9.00;99.90
22680;DHT22;11507;44.858;10.374;2023-12-28T08:10:24;9.10;99.90
22680;DHT22;11507;44.858;10.374;2023-12-28T08:12:50;9.30;99.90
22680;DHT22;11507;44.858;10.374;2023-12-28T08:15:16;9.30;99.90
22680;DHT22;11507;44.858;10.374;2023-12-28T08:17:42;9.40;99.90
22680;DHT22;11507;44.858;10.374;2023-12-28T08:20:08;9.50;99.90
22680;DHT22;11507;44.858;10.374;2023-12-28T08:22:34;9.60;99.90
22680;DHT22;11507;44.858;10.374;2023-12-28T08:25:00;9.60;99.90
22680;DHT22;11507;44.858;10.374;2023-12-28T08:27:26;9.80;99.90
22680;DHT22;11507;44.858;10.374;2023-12-28T08:29:52;9.90;99.90
22680;DHT22;11507;44.858;10.374;2023-12-28T08:32:18;10.00;99.90
22680;DHT22;11507;44.858;10.374;2023-12-28T08:34:44;10.10;99.90
22680;DHT22;11507;44.858;10.374;2023-12-28T08:37:12;10.20;99.90
22680;DHT22;11507;44.858;10.374;2023-12-28T08:39:39;10.30;99.90
22680;DHT22;11507;44.858;10.374;2023-12-28T08:42:05;10.40;99.90
22680;DHT22;11507;44.858;10.374;2023-12-28T08:44:31;10.50;99.90
22680;DHT22;11507;44.858;10.374;2023-12-28T08:46:58;10.60;99.90
22680;DHT22;11507;44.858;10.374;2023-12-28T08:49:24;10.60;99.90
22680;DHT22;11507;44.858;10.374;2023-12-28T08:51:51;10.70;99.90
22680;DHT22;11507;44.858;10.374;2023-12-28T08:54:16;10.60;99.90
22680;DHT22;11507;44.858;10.374;2023-12-28T08:56:42;10.70;99.90
22680;DHT22;11507;44.858;10.374;2023-12-28T08:59:09;10.70;99.90
22680;DHT22;11507;44.858;10.374;2023-12-28T09:01:35;10.70;99.90
22680;DHT22;11507;44.858;10.374;2023-12-28T09:04:01;10.80;99.90
22680;DHT22;11507;44.858;10.374;2023-12-28T09:06:27;10.90;99.90
22680;DHT22;11507;44.858;10.374;2023-12-28T09:08:52;10.90;99.90
22680;DHT22;11507;44.858;10.374;2023-12-28T09:11:19;11.00;99.90
22680;DHT22;11507;44.858;10.374;2023-12-28T09:13:45;11.10;99.90
22680;DHT22;11507;44.858;10.374;2023-12-28T09:16:12;11.30;99.90
22680;DHT22;11507;44.858;10.374;2023-12-28T09:18:38;11.40;99.90
22680;DHT22;11507;44.858;10.374;2023-12-28T09:21:05;11.50;99.90
22680;DHT22;11507;44.858;10.374;2023-12-28T09:23:31;11.60;99.90
22680;DHT22;11507;44.858;10.374;2023-12-28T09:25:58;11.90;99.90
22680;DHT22;11507;44.858;10.374;2023-12-28T09:28:24;12.00;99.90
22680;DHT22;11507;44.858;10.374;2023-12-28T09:30:50;12.20;99.90
22680;DHT22;11507;44.858;10.374;2023-12-28T09:33:16;12.50;99.90
22680;DHT22;11507;44.858;10.374;2023-12-28T09:35:42;12.50;99.90
22680;DHT22;11507;44.858;10.374;2023-12-28T09:38:08;12.80;99.90
22680;DHT22;11507;44.858;10.374;2023-12-28T09:40:37;13.10;99.90
22680;DHT22;11507;44.858;10.374;2023-12-28T09:45:30;13.10;99.90
22680;DHT22;11507;44.858;10.374;2023-12-28T09:47:55;13.30;99.90
22680;DHT22;11507;44.858;10.374;2023-12-28T09:50:21;13.20;99.90
22680;DHT22;11507;44.858;10.374;2023-12-28T09:52:49;13.20;99.90
22680;DHT22;11507;44.858;10.374;2023-12-28T09:55:15;13.40;99.90
22680;DHT22;11507;44.858;10.374;2023-12-28T09:57:41;13.40;99.90
22680;DHT22;11507;44.858;10.374;2023-12-28T10:00:08;13.40;99.90
22680;DHT22;11507;44.858;10.374;2023-12-28T10:02:38;13.40;99.90
22680;DHT22;11507;44.858;10.374;2023-12-28T10:05:05;13.50;99.90
22680;DHT22;11507;44.858;10.374;2023-12-28T10:07:31;13.70;99.90
22680;DHT22;11507;44.858;10.374;2023-12-28T10:09:57;13.80;99.90
22680;DHT22;11507;44.858;10.374;2023-12-28T10:12:24;13.80;99.90
22680;DHT22;11507;44.858;10.374;2023-12-28T10:14:53;14.00;99.90
22680;DHT22;11507;44.858;10.374;2023-12-28T10:17:19;14.50;99.90
22680;DHT22;11507;44.858;10.374;2023-12-28T10:19:45;15.10;99.90
22680;DHT22;11507;44.858;10.374;2023-12-28T10:22:13;15.60;99.90
22680;DHT22;11507;44.858;10.374;2023-12-28T10:24:45;16.20;99.90
22680;DHT22;11507;44.858;10.374;2023-12-28T10:27:13;16.60;99.90
22680;DHT22;11507;44.858;10.374;2023-12-28T10:29:39;16.90;99.90
22680;DHT22;11507;44.858;10.374;2023-12-28T10:32:05;17.40;99.90
22680;DHT22;11507;44.858;10.374;2023-12-28T10:34:31;17.80;99.90
22680;DHT22;11507;44.858;10.374;2023-12-28T10:36:58;18.30;99.90
22680;DHT22;11507;44.858;10.374;2023-12-28T10:39:24;18.80;99.90
22680;DHT22;11507;44.858;10.374;2023-12-28T10:41:51;19.50;99.90
22680;DHT22;11507;44.858;10.374;2023-12-28T10:44:21;20.30;99.90
22680;DHT22;11507;44.858;10.374;2023-12-28T10:46:49;20.70;99.90
22680;DHT22;11507;44.858;10.374;2023-12-28T10:49:16;21.10;97.90
22680;DHT22;11507;44.858;10.374;2023-12-28T10:51:43;21.20;98.90
22680;DHT22;11507;44.858;10.374;2023-12-28T10:54:19;21.60;96.90
22680;DHT22;11507;44.858;10.374;2023-12-28T10:56:48;21.10;96.50
22680;DHT22;11507;44.858;10.374;2023-12-28T11:01:45;20.80;97.20
22680;DHT22;11507;44.858;10.374;2023-12-28T11:06:38;21.00;96.20
22680;DHT22;11507;44.858;10.374;2023-12-28T11:09:05;21.10;95.80
22680;DHT22;11507;44.858;10.374;2023-12-28T11:11:32;21.40;95.80
22680;DHT22;11507;44.858;10.374;2023-12-28T11:13:59;21.60;95.00
22680;DHT22;11507;44.858;10.374;2023-12-28T11:16:25;21.50;94.40
22680;DHT22;11507;44.858;10.374;2023-12-28T11:18:52;21.70;95.00
22680;DHT22;11507;44.858;10.374;2023-12-28T11:21:19;22.40;94.80
22680;DHT22;11507;44.858;10.374;2023-12-28T11:23:45;22.80;92.40
22680;DHT22;11507;44.858;10.374;2023-12-28T11:26:16;23.00;94.40
22680;DHT22;11507;44.858;10.374;2023-12-28T11:28:43;23.20;92.90
22680;DHT22;11507;44.858;10.374;2023-12-28T11:31:15;22.90;91.50
22680;DHT22;11507;44.858;10.374;2023-12-28T11:33:45;22.50;91.50
22680;DHT22;11507;44.858;10.374;2023-12-28T11:36:11;21.60;93.20
22680;DHT22;11507;44.858;10.374;2023-12-28T11:38:38;20.50;94.20
22680;DHT22;11507;44.858;10.374;2023-12-28T11:41:06;19.90;96.20
22680;DHT22;11507;44.858;10.374;2023-12-28T11:43:34;19.30;97.80
22680;DHT22;11507;44.858;10.374;2023-12-28T11:46:00;18.80;98.80
22680;DHT22;11507;44.858;10.374;2023-12-28T11:48:26;18.60;99.60
22680;DHT22;11507;44.858;10.374;2023-12-28T11:50:56;18.50;99.20
22680;DHT22;11507;44.858;10.374;2023-12-28T11:53:23;18.50;99.30
22680;DHT22;11507;44.858;10.374;2023-12-28T11:55:49;18.40;99.90
22680;DHT22;11507;44.858;10.374;2023-12-28T11:58:16;18.20;99.90
22680;DHT22;11507;44.858;10.374;2023-12-28T12:00:42;18.60;99.90
22680;DHT22;11507;44.858;10.374;2023-12-28T12:03:12;18.70;98.90
22680;DHT22;11507;44.858;10.374;2023-12-28T12:05:38;18.90;99.10
22680;DHT22;11507;44.858;10.374;2023-12-28T12:08:06;18.70;98.30
22680;DHT22;11507;44.858;10.374;2023-12-28T12:10:39;18.30;99.10
22680;DHT22;11507;44.858;10.374;2023-12-28T12:13:05;17.50;99.90
22680;DHT22;11507;44.858;10.374;2023-12-28T12:15:31;16.90;99.90
22680;DHT22;11507;44.858;10.374;2023-12-28T12:17:58;16.40;99.90
22680;DHT22;11507;44.858;10.374;2023-12-28T12:20:24;16.20;99.90
22680;DHT22;11507;44.858;10.374;2023-12-28T12:22:50;16.00;99.90
22680;DHT22;11507;44.858;10.374;2023-12-28T12:25:17;15.80;99.90
22680;DHT22;11507;44.858;10.374;2023-12-28T12:27:45;15.80;99.90
22680;DHT22;11507;44.858;10.374;2023-12-28T12:30:11;16.00;99.90
22680;DHT22;11507;44.858;10.374;2023-12-28T12:32:37;16.30;99.90
22680;DHT22;11507;44.858;10.374;2023-12-28T12:35:05;16.40;99.90
22680;DHT22;11507;44.858;10.374;2023-12-28T12:37:32;16.50;99.90
22680;DHT22;11507;44.858;10.374;2023-12-28T12:39:57;16.60;99.90
22680;DHT22;11507;44.858;10.374;2023-12-28T12:42:23;16.60;99.90
22680;DHT22;11507;44.858;10.374;2023-12-28T12:44:49;16.80;99.90
22680;DHT22;11507;44.858;10.374;2023-12-28T12:47:15;17.70;99.90
22680;DHT22;11507;44.858;10.374;2023-12-28T12:49:41;18.60;99.90
22680;DHT22;11507;44.858;10.374;2023-12-28T12:52:09;19.10;99.90
22680;DHT22;11507;44.858;10.374;2023-12-28T12:54:35;19.00;99.70
22680;DHT22;11507;44.858;10.374;2023-12-28T12:57:01;18.30;99.90
22680;DHT22;11507;44.858;10.374;2023-12-28T12:59:29;17.60;99.90
22680;DHT22;11507;44.858;10.374;2023-12-28T13:01:56;17.10;99.90
22680;DHT22;11507;44.858;10.374;2023-12-28T13:04:22;16.80;99.90
22680;DHT22;11507;44.858;10.374;2023-12-28T13:06:48;16.20;99.90
22680;DHT22;11507;44.858;10.374;2023-12-28T13:09:14;15.90;99.90
22680;DHT22;11507;44.858;10.374;2023-12-28T13:11:40;15.50;99.90
22680;DHT22;11507;44.858;10.374;2023-12-28T13:14:07;15.40;99.90
22680;DHT22;11507;44.858;10.374;2023-12-28T13:16:33;15.50;99.90
22680;DHT22;11507;44.858;10.374;2023-12-28T13:18:58;15.40;99.90
22680;DHT22;11507;44.858;10.374;2023-12-28T13:21:24;15.20;99.90
22680;DHT22;11507;44.858;10.374;2023-12-28T13:23:50;14.80;99.90
22680;DHT22;11507;44.858;10.374;2023-12-28T13:26:17;14.40;99.90
22680;DHT22;11507;44.858;10.374;2023-12-28T13:28:42;14.20;99.90
22680;DHT22;11507;44.858;10.374;2023-12-28T13:31:08;14.00;99.90
22680;DHT22;11507;44.858;10.374;2023-12-28T13:33:34;13.90;99.90
22680;DHT22;11507;44.858;10.374;2023-12-28T13:36:01;14.20;99.90
22680;DHT22;11507;44.858;10.374;2023-12-28T13:38:27;14.80;99.90
22680;DHT22;11507;44.858;10.374;2023-12-28T13:40:53;15.80;99.90
22680;DHT22;11507;44.858;10.374;2023-12-28T13:43:18;16.90;99.90
22680;DHT22;11507;44.858;10.374;2023-12-28T13:45:44;17.30;99.90
22680;DHT22;11507;44.858;10.374;2023-12-28T13:48:10;17.30;99.90
22680;DHT22;11507;44.858;10.374;2023-12-28T13:50:36;17.00;99.90
22680;DHT22;11507;44.858;10.374;2023-12-28T13:53:02;16.50;99.90
22680;DHT22;11507;44.858;10.374;2023-12-28T13:55:30;15.70;99.90
22680;DHT22;11507;44.858;10.374;2023-12-28T13:57:55;15.40;99.90
22680;DHT22;11507;44.858;10.374;2023-12-28T14:00:21;15.30;99.90
22680;DHT22;11507;44.858;10.374;2023-12-28T14:02:47;15.20;99.90
22680;DHT22;11507;44.858;10.374;2023-12-28T14:05:13;15.20;99.90
22680;DHT22;11507;44.858;10.374;2023-12-28T14:07:39;15.10;99.90
22680;DHT22;11507;44.858;10.374;2023-12-28T14:10:05;14.90;99.90
22680;DHT22;11507;44.858;10.374;2023-12-28T14:12:31;14.70;99.90
22680;DHT22;11507;44.858;10.374;2023-12-28T14:14:57;14.50;99.90
22680;DHT22;11507;44.858;10.374;2023-12-28T14:17:24;14.30;99.90
22680;DHT22;11507;44.858;10.374;2023-12-28T14:19:50;14.10;99.90
22680;DHT22;11507;44.858;10.374;2023-12-28T14:22:16;13.90;99.90
22680;DHT22;11507;44.858;10.374;2023-12-28T14:24:42;13.60;99.90
22680;DHT22;11507;44.858;10.374;2023-12-28T14:27:08;13.40;99.90
22680;DHT22;11507;44.858;10.374;2023-12-28T14:29:35;13.20;99.90
22680;DHT22;11507;44.858;10.374;2023-12-28T14:32:02;13.00;99.90
22680;DHT22;11507;44.858;10.374;2023-12-28T14:34:28;12.80;99.90
22680;DHT22;11507;44.858;10.374;2023-12-28T14:36:56;12.70;99.90
22680;DHT22;11507;44.858;10.374;2023-12-28T14:39:22;12.50;99.90
22680;DHT22;11507;44.858;10.374;2023-12-28T14:41:48;12.40;99.90
22680;DHT22;11507;44.858;10.374;2023-12-28T14:44:14;12.20;99.90
22680;DHT22;11507;44.858;10.374;2023-12-28T14:46:40;12.20;99.90
22680;DHT22;11507;44.858;10.374;2023-12-28T14:49:06;12.10;99.90
22680;DHT22;11507;44.858;10.374;2023-12-28T14:51:32;12.00;99.90
22680;DHT22;11507;44.858;10.374;2023-12-28T14:53:58;11.90;99.90
22680;DHT22;11507;44.858;10.374;2023-12-28T14:56:24;11.80;99.90
22680;DHT22;11507;44.858;10.374;2023-12-28T14:58:50;11.70;99.90
22680;DHT22;11507;44.858;10.374;2023-12-28T15:01:17;11.70;99.90
22680;DHT22;11507;44.858;10.374;2023-12-28T15:03:46;11.60;99.90
22680;DHT22;11507;44.858;10.374;2023-12-28T15:06:12;11.60;99.90
22680;DHT22;11507;44.858;10.374;2023-12-28T15:08:38;11.50;99.90
22680;DHT22;11507;44.858;10.374;2023-12-28T15:11:04;11.50;99.90
22680;DHT22;11507;44.858;10.374;2023-12-28T15:13:32;11.40;99.90
22680;DHT22;11507;44.858;10.374;2023-12-28T15:15:58;11.40;99.90
22680;DHT22;11507;44.858;10.374;2023-12-28T15:18:24;11.30;99.90
22680;DHT22;11507;44.858;10.374;2023-12-28T15:20:50;11.30;99.90
22680;DHT22;11507;44.858;10.374;2023-12-28T15:23:16;11.20;99.90
22680;DHT22;11507;44.858;10.374;2023-12-28T15:25:44;11.10;99.90
22680;DHT22;11507;44.858;10.374;2023-12-28T15:28:10;11.10;99.90